METAR Data
IDs: Format: Raw Decoded Include TAF

Data at: 0926 UTC 10 Dec 2022

KERV 100915Z AUTO 17011G17KT 10SM OVC012 20/17 A3005 RMK AO2 T01950173
KERV 100855Z AUTO 18011G15KT 10SM OVC012 20/18 A3005 RMK AO2 T01950175
KERV 100835Z AUTO 17014G21KT 10SM OVC012 20/18 A3005 RMK AO2 T01970176
KERV 100815Z AUTO 17014G18KT 10SM OVC009 20/18 A3004 RMK AO2 T01970181
KERV 100755Z AUTO 16013KT 7SM OVC007 20/19 A3004 RMK AO2 T01960185
KERV 100735Z AUTO 16010G19KT 7SM OVC007 20/19 A3005 RMK AO2 T01960185
KERV 100715Z AUTO 16012KT 7SM OVC007 20/19 A3005 RMK AO2 T01950185
KERV 100655Z AUTO 16015KT 7SM OVC007 20/19 A3005 RMK AO2 T01960185
KERV 100635Z AUTO 17015G21KT 7SM OVC007 20/19 A3005 RMK AO2 T01970185
KERV 100615Z AUTO 16014G21KT 7SM OVC009 20/19 A3006 RMK AO2 T01970185
KERV 100555Z AUTO 16014KT 7SM OVC009 20/18 A3006 RMK AO2 T01980183 10200 20171 402380171
KERV 100535Z AUTO 16011KT 7SM OVC011 20/18 A3006 RMK AO2 T01980182

KT82 100915Z AUTO 19010KT 10SM OVC015 20/17 A3006 RMK AO2 T01960168
KT82 100855Z AUTO 19010G14KT 10SM OVC013 20/17 A3006 RMK AO2 T01970171
KT82 100835Z AUTO 19009KT 10SM OVC011 20/17 A3005 RMK AO2 T01970174
KT82 100815Z AUTO 18010G15KT 10SM OVC011 20/18 A3005 RMK AO2 T01970176
KT82 100755Z AUTO 19009KT 10SM OVC011 20/18 A3005 RMK AO2 T01980176
KT82 100735Z AUTO 19009G14KT 10SM OVC011 20/18 A3004 RMK AO2 T01970176
KT82 100715Z AUTO 17012G16KT 10SM OVC011 20/18 A3004 RMK AO2 T01970175
KT82 100655Z AUTO 17011G15KT 10SM OVC011 20/18 A3005 RMK AO2 T01960175
KT82 100635Z AUTO 17009KT 10SM OVC011 20/17 A3006 RMK AO2 T01960174
KT82 100615Z AUTO 17009G17KT 10SM OVC011 20/17 A3006 RMK AO2 T01950172
KT82 100555Z AUTO 17010G16KT 10SM OVC011 20/17 A3006 RMK AO2 T01950172 10210 20171 402420171
KT82 100535Z AUTO 16012G17KT 10SM OVC011 19/17 A3006 RMK AO2 T01920172

KHDO 100924Z AUTO 15010KT 10SM SCT009 OVC055 20/19 A3002 RMK AO2 T02000189
KHDO 100851Z AUTO 10SM OVC009 20/19 A3003 RMK AO2 CIG 007V013 SLP155 T02000189 58007
KHDO 100825Z AUTO 16012KT 10SM OVC009 21/19 A3003 RMK AO2 CIG 008V013 T02060189
KHDO 100751Z AUTO 17009KT 10SM OVC012 21/19 A3004 RMK AO2 SLP160 T02060189
KHDO 100651Z AUTO 16011KT 10SM BKN011 OVC049 21/19 A3005 RMK AO2 SLP163 T02110194
KHDO 100637Z AUTO 16013KT 10SM OVC009 21/19 A3005 RMK AO2 CIG 009V013 T02110194
KHDO 100551Z AUTO 16010KT 10SM OVC011 21/19 A3005 RMK AO2 SLP164 T02110194 10233 20211 402610189 51004

KCVB 100918Z AUTO 14007KT 10SM OVC008 21/21 A3005 RMK AO2
KCVB 100858Z AUTO 14006KT 10SM OVC008 21/21 A3005 RMK AO2
KCVB 100838Z AUTO 15007KT 10SM OVC008 21/21 A3005 RMK AO2
KCVB 100820Z AUTO 14009KT 10SM BKN008 21/21 A3005 RMK AO2
KCVB 100758Z AUTO 14007KT 10SM SCT010 SCT050 BKN060 21/21 A3006 RMK AO2
KCVB 100738Z AUTO 14007KT 10SM SCT010 BKN050 BKN060 22/21 A3006 RMK AO2
KCVB 100718Z AUTO 14008KT 10SM BKN010 OVC060 22/21 A3007 RMK AO2
KCVB 100700Z AUTO 14007KT 10SM BKN010 OVC060 22/21 A3007 RMK AO2
KCVB 100638Z AUTO 14008KT 10SM BKN010 BKN014 OVC060 22/21 A3007 RMK AO2
KCVB 100618Z AUTO 14008G15KT 10SM OVC010 22/21 A3007 RMK AO2
KCVB 100558Z AUTO 14009KT 10SM OVC010 22/21 A3007 RMK AO2
KCVB 100538Z AUTO 14008KT 10SM OVC010 22/21 A3008 RMK AO2

KJCT 100851Z AUTO 11003KT 5SM BR BKN020 BKN025 OVC050 17/16 A3003 RMK AO2 SLP140 T01670156 56007
KJCT 100751Z AUTO 09004KT 5SM BR BKN020 BKN025 OVC050 17/16 A3004 RMK AO2 SLP142 T01670156
KJCT 100651Z AUTO 00000KT 5SM BR OVC016 17/15 A3005 RMK AO2 SLP145 T01670150
KJCT 100551Z AUTO 00000KT 5SM BR OVC017 16/15 A3006 RMK AO2 SLP148 T01610150 10211 20150 402500150 53002